sensor_id;sensor_type;location;lat;lon;timestamp;pressure;altitude;pressure_sealevel;temperature;humidity
44441;BME280;30146;52.268;20.944;2023-01-28T00:02:04;101099.73;;;1.96;70.37
44441;BME280;30146;52.268;20.944;2023-01-28T00:04:35;101098.02;;;1.96;70.38
44441;BME280;30146;52.268;20.944;2023-01-28T00:07:06;101099.79;;;1.97;70.30
44441;BME280;30146;52.268;20.944;2023-01-28T00:09:37;101096.75;;;1.97;70.42
44441;BME280;30146;52.268;20.944;2023-01-28T00:12:09;101095.42;;;1.98;70.26
44441;BME280;30146;52.268;20.944;2023-01-28T00:14:40;101096.67;;;1.99;70.39
44441;BME280;30146;52.268;20.944;2023-01-28T00:17:11;101099.73;;;2.00;70.48
44441;BME280;30146;52.268;20.944;2023-01-28T00:19:42;101097.94;;;2.02;70.55
44441;BME280;30146;52.268;20.944;2023-01-28T00:22:13;101100.35;;;2.03;70.53
44441;BME280;30146;52.268;20.944;2023-01-28T00:24:44;101093.52;;;2.05;70.47
44441;BME280;30146;52.268;20.944;2023-01-28T00:27:15;101094.41;;;2.07;70.60
44441;BME280;30146;52.268;20.944;2023-01-28T00:29:46;101091.13;;;2.09;70.65
44441;BME280;30146;52.268;20.944;2023-01-28T00:32:17;101093.14;;;2.09;70.27
44441;BME280;30146;52.268;20.944;2023-01-28T00:34:48;101094.65;;;2.08;70.68
44441;BME280;30146;52.268;20.944;2023-01-28T00:37:19;101100.35;;;2.08;70.49
44441;BME280;30146;52.268;20.944;2023-01-28T00:39:50;101099.02;;;2.08;70.58
44441;BME280;30146;52.268;20.944;2023-01-28T00:42:21;101098.21;;;2.09;70.76
44441;BME280;30146;52.268;20.944;2023-01-28T00:44:52;101097.44;;;2.11;70.51
44441;BME280;30146;52.268;20.944;2023-01-28T00:47:23;101099.33;;;2.12;70.70
44441;BME280;30146;52.268;20.944;2023-01-28T00:49:54;101098.66;;;2.12;70.60
44441;BME280;30146;52.268;20.944;2023-01-28T00:52:25;101096.13;;;2.12;70.51
44441;BME280;30146;52.268;20.944;2023-01-28T00:54:57;101097.55;;;2.14;70.61
44441;BME280;30146;52.268;20.944;2023-01-28T00:57:28;101093.37;;;2.16;70.45
44441;BME280;30146;52.268;20.944;2023-01-28T00:59:59;101086.85;;;2.17;70.60
44441;BME280;30146;52.268;20.944;2023-01-28T01:02:30;101087.08;;;2.19;70.64
44441;BME280;30146;52.268;20.944;2023-01-28T01:05:01;101087.83;;;2.21;70.50
44441;BME280;30146;52.268;20.944;2023-01-28T01:07:32;101088.91;;;2.23;70.54
44441;BME280;30146;52.268;20.944;2023-01-28T01:10:12;101087.59;;;2.24;70.61
44441;BME280;30146;52.268;20.944;2023-01-28T01:12:46;101087.33;;;2.26;70.62
44441;BME280;30146;52.268;20.944;2023-01-28T01:15:19;101088.39;;;2.26;70.79
44441;BME280;30146;52.268;20.944;2023-01-28T01:17:50;101086.52;;;2.26;70.67
44441;BME280;30146;52.268;20.944;2023-01-28T01:20:24;101087.34;;;2.25;70.58
44441;BME280;30146;52.268;20.944;2023-01-28T01:22:56;101089.53;;;2.26;70.54
44441;BME280;30146;52.268;20.944;2023-01-28T01:25:28;101087.14;;;2.25;70.41
44441;BME280;30146;52.268;20.944;2023-01-28T01:27:59;101089.13;;;2.24;70.33
44441;BME280;30146;52.268;20.944;2023-01-28T01:30:30;101091.66;;;2.24;70.73
44441;BME280;30146;52.268;20.944;2023-01-28T01:33:01;101080.25;;;2.26;70.99
44441;BME280;30146;52.268;20.944;2023-01-28T01:35:34;101080.84;;;2.28;70.72
44441;BME280;30146;52.268;20.944;2023-01-28T01:38:04;101082.18;;;2.27;70.46
44441;BME280;30146;52.268;20.944;2023-01-28T01:40:35;101080.83;;;2.27;70.53
44441;BME280;30146;52.268;20.944;2023-01-28T01:43:16;101082.47;;;2.26;70.58
44441;BME280;30146;52.268;20.944;2023-01-28T01:45:49;101087.52;;;2.26;70.38
44441;BME280;30146;52.268;20.944;2023-01-28T01:48:27;101085.50;;;2.26;70.72
44441;BME280;30146;52.268;20.944;2023-01-28T01:51:04;101085.44;;;2.25;70.50
44441;BME280;30146;52.268;20.944;2023-01-28T01:53:41;101082.06;;;2.25;70.34
44441;BME280;30146;52.268;20.944;2023-01-28T01:56:17;101084.30;;;2.25;70.82
44441;BME280;30146;52.268;20.944;2023-01-28T01:58:53;101088.34;;;2.26;70.59
44441;BME280;30146;52.268;20.944;2023-01-28T02:01:28;101086.02;;;2.26;70.56
44441;BME280;30146;52.268;20.944;2023-01-28T02:04:06;101086.20;;;2.27;70.86
44441;BME280;30146;52.268;20.944;2023-01-28T02:06:40;101085.35;;;2.22;70.43
44441;BME280;30146;52.268;20.944;2023-01-28T02:09:24;101083.84;;;2.18;70.54
44441;BME280;30146;52.268;20.944;2023-01-28T02:11:58;101088.23;;;2.17;70.54
44441;BME280;30146;52.268;20.944;2023-01-28T02:14:34;101092.48;;;2.18;70.56
44441;BME280;30146;52.268;20.944;2023-01-28T02:17:05;101090.11;;;2.19;70.60
44441;BME280;30146;52.268;20.944;2023-01-28T02:19:38;101091.26;;;2.18;70.63
44441;BME280;30146;52.268;20.944;2023-01-28T02:22:37;101092.96;;;2.18;70.52
44441;BME280;30146;52.268;20.944;2023-01-28T02:25:39;101092.55;;;2.21;70.70
44441;BME280;30146;52.268;20.944;2023-01-28T02:28:24;101094.15;;;2.23;70.73
44441;BME280;30146;52.268;20.944;2023-01-28T02:31:00;101097.06;;;2.24;70.76
44441;BME280;30146;52.268;20.944;2023-01-28T02:33:40;101097.40;;;2.24;70.73
44441;BME280;30146;52.268;20.944;2023-01-28T02:36:20;101099.80;;;2.25;70.72
44441;BME280;30146;52.268;20.944;2023-01-28T02:38:55;101098.09;;;2.24;70.49
44441;BME280;30146;52.268;20.944;2023-01-28T02:41:33;101093.86;;;2.24;70.73
44441;BME280;30146;52.268;20.944;2023-01-28T02:44:07;101092.67;;;2.24;70.69
44441;BME280;30146;52.268;20.944;2023-01-28T02:46:38;101092.30;;;2.23;70.82
44441;BME280;30146;52.268;20.944;2023-01-28T02:49:29;101095.31;;;2.23;70.60
44441;BME280;30146;52.268;20.944;2023-01-28T02:55:19;101097.23;;;2.20;70.66
44441;BME280;30146;52.268;20.944;2023-01-28T02:57:59;101102.15;;;2.20;70.73
44441;BME280;30146;52.268;20.944;2023-01-28T03:00:40;101104.16;;;2.20;70.76
44441;BME280;30146;52.268;20.944;2023-01-28T03:03:18;101098.09;;;2.20;70.56
44441;BME280;30146;52.268;20.944;2023-01-28T03:05:54;101104.34;;;2.21;70.64
44441;BME280;30146;52.268;20.944;2023-01-28T03:08:35;101104.17;;;2.20;70.62
44441;BME280;30146;52.268;20.944;2023-01-28T03:11:27;101103.84;;;2.20;70.60
44441;BME280;30146;52.268;20.944;2023-01-28T03:14:18;101104.49;;;2.20;70.68
44441;BME280;30146;52.268;20.944;2023-01-28T03:17:11;101101.61;;;2.20;70.71
44441;BME280;30146;52.268;20.944;2023-01-28T03:20:01;101105.31;;;2.19;70.82
44441;BME280;30146;52.268;20.944;2023-01-28T03:22:55;101105.55;;;2.21;70.92
44441;BME280;30146;52.268;20.944;2023-01-28T03:25:46;101107.05;;;2.21;71.16
44441;BME280;30146;52.268;20.944;2023-01-28T03:28:41;101108.39;;;2.20;70.97
44441;BME280;30146;52.268;20.944;2023-01-28T03:31:34;101109.11;;;2.21;70.87
44441;BME280;30146;52.268;20.944;2023-01-28T03:34:23;101108.30;;;2.22;71.02
44441;BME280;30146;52.268;20.944;2023-01-28T03:37:13;101099.90;;;2.23;71.47
44441;BME280;30146;52.268;20.944;2023-01-28T03:39:50;101095.39;;;2.24;71.12
44441;BME280;30146;52.268;20.944;2023-01-28T03:42:21;101097.90;;;2.24;71.17
44441;BME280;30146;52.268;20.944;2023-01-28T03:45:26;101101.91;;;2.23;71.06
44441;BME280;30146;52.268;20.944;2023-01-28T03:47:57;101106.10;;;2.22;70.98
44441;BME280;30146;52.268;20.944;2023-01-28T03:50:28;101106.58;;;2.21;71.08
44441;BME280;30146;52.268;20.944;2023-01-28T03:53:02;101107.55;;;2.21;71.15
44441;BME280;30146;52.268;20.944;2023-01-28T03:55:53;101111.05;;;2.19;71.14
44441;BME280;30146;52.268;20.944;2023-01-28T03:58:25;101105.95;;;2.18;71.04
44441;BME280;30146;52.268;20.944;2023-01-28T04:01:16;101104.11;;;2.18;71.03
44441;BME280;30146;52.268;20.944;2023-01-28T04:03:47;101107.46;;;2.18;70.93
44441;BME280;30146;52.268;20.944;2023-01-28T04:06:26;101106.28;;;2.18;71.21
44441;BME280;30146;52.268;20.944;2023-01-28T04:09:08;101109.48;;;2.18;70.95
44441;BME280;30146;52.268;20.944;2023-01-28T04:11:50;101107.55;;;2.16;70.93
44441;BME280;30146;52.268;20.944;2023-01-28T04:14:27;101108.55;;;2.16;71.17
44441;BME280;30146;52.268;20.944;2023-01-28T04:17:23;101106.71;;;2.16;71.19
44441;BME280;30146;52.268;20.944;2023-01-28T04:19:54;101106.72;;;2.16;71.17
44441;BME280;30146;52.268;20.944;2023-01-28T04:22:26;101102.16;;;2.16;71.18
44441;BME280;30146;52.268;20.944;2023-01-28T04:24:57;101103.02;;;2.16;71.05
44441;BME280;30146;52.268;20.944;2023-01-28T04:27:28;101101.42;;;2.14;71.01
44441;BME280;30146;52.268;20.944;2023-01-28T04:30:08;101102.86;;;2.12;70.97
44441;BME280;30146;52.268;20.944;2023-01-28T04:32:42;101104.40;;;2.12;70.94
44441;BME280;30146;52.268;20.944;2023-01-28T04:35:41;101107.68;;;2.15;71.12
44441;BME280;30146;52.268;20.944;2023-01-28T04:38:21;101108.05;;;2.16;71.17
44441;BME280;30146;52.268;20.944;2023-01-28T04:41:09;101111.47;;;2.17;71.11
44441;BME280;30146;52.268;20.944;2023-01-28T04:43:40;101111.98;;;2.17;71.00
44441;BME280;30146;52.268;20.944;2023-01-28T04:46:34;101111.27;;;2.16;71.05
44441;BME280;30146;52.268;20.944;2023-01-28T04:49:35;101112.14;;;2.17;71.21
44441;BME280;30146;52.268;20.944;2023-01-28T04:52:15;101110.92;;;2.16;71.12
44441;BME280;30146;52.268;20.944;2023-01-28T04:55:07;101115.27;;;2.15;71.09
44441;BME280;30146;52.268;20.944;2023-01-28T04:57:39;101116.99;;;2.16;70.97
44441;BME280;30146;52.268;20.944;2023-01-28T05:00:11;101118.98;;;2.14;71.07
44441;BME280;30146;52.268;20.944;2023-01-28T05:02:43;101116.77;;;2.14;71.02
44441;BME280;30146;52.268;20.944;2023-01-28T05:05:14;101119.78;;;2.14;71.17
44441;BME280;30146;52.268;20.944;2023-01-28T05:08:09;101119.42;;;2.13;71.43
44441;BME280;30146;52.268;20.944;2023-01-28T05:10:41;101118.42;;;2.13;71.16
44441;BME280;30146;52.268;20.944;2023-01-28T05:13:12;101119.77;;;2.13;71.14
44441;BME280;30146;52.268;20.944;2023-01-28T05:15:51;101120.66;;;2.14;71.42
44441;BME280;30146;52.268;20.944;2023-01-28T05:18:23;101125.75;;;2.15;71.16
44441;BME280;30146;52.268;20.944;2023-01-28T05:21:15;101117.98;;;2.15;71.11
44441;BME280;30146;52.268;20.944;2023-01-28T05:23:50;101122.38;;;2.15;71.27
44441;BME280;30146;52.268;20.944;2023-01-28T05:26:21;101124.06;;;2.16;71.32
44441;BME280;30146;52.268;20.944;2023-01-28T05:28:52;101126.55;;;2.14;71.11
44441;BME280;30146;52.268;20.944;2023-01-28T05:31:23;101128.55;;;2.14;71.10
44441;BME280;30146;52.268;20.944;2023-01-28T05:33:54;101126.02;;;2.13;71.16
44441;BME280;30146;52.268;20.944;2023-01-28T05:36:25;101126.40;;;2.15;71.31
44441;BME280;30146;52.268;20.944;2023-01-28T05:38:57;101127.23;;;2.14;71.07
44441;BME280;30146;52.268;20.944;2023-01-28T05:41:28;101131.31;;;2.15;71.17
44441;BME280;30146;52.268;20.944;2023-01-28T05:44:02;101129.13;;;2.15;71.40
44441;BME280;30146;52.268;20.944;2023-01-28T05:46:46;101129.63;;;2.15;71.17
44441;BME280;30146;52.268;20.944;2023-01-28T05:49:37;101133.16;;;2.15;71.08
44441;BME280;30146;52.268;20.944;2023-01-28T05:52:33;101137.23;;;2.15;71.24
44441;BME280;30146;52.268;20.944;2023-01-28T05:55:05;101136.71;;;2.15;71.18
44441;BME280;30146;52.268;20.944;2023-01-28T05:57:37;101135.85;;;2.15;71.38
44441;BME280;30146;52.268;20.944;2023-01-28T06:00:12;101134.19;;;2.16;71.57
44441;BME280;30146;52.268;20.944;2023-01-28T06:02:45;101134.77;;;2.17;71.62
44441;BME280;30146;52.268;20.944;2023-01-28T06:05:17;101131.75;;;2.18;71.68
44441;BME280;30146;52.268;20.944;2023-01-28T06:07:49;101138.54;;;2.19;71.34
44441;BME280;30146;52.268;20.944;2023-01-28T06:10:20;101141.76;;;2.20;71.39
44441;BME280;30146;52.268;20.944;2023-01-28T06:12:51;101143.77;;;2.19;71.58
44441;BME280;30146;52.268;20.944;2023-01-28T06:15:40;101146.69;;;2.20;71.54
44441;BME280;30146;52.268;20.944;2023-01-28T06:18:35;101151.96;;;2.22;71.68
44441;BME280;30146;52.268;20.944;2023-01-28T06:21:06;101151.77;;;2.21;71.60
44441;BME280;30146;52.268;20.944;2023-01-28T06:23:38;101150.89;;;2.20;71.31
44441;BME280;30146;52.268;20.944;2023-01-28T06:26:10;101152.38;;;2.19;71.46
44441;BME280;30146;52.268;20.944;2023-01-28T06:28:45;101158.00;;;2.21;71.70
44441;BME280;30146;52.268;20.944;2023-01-28T06:31:16;101157.70;;;2.21;71.57
44441;BME280;30146;52.268;20.944;2023-01-28T06:33:47;101160.42;;;2.22;71.59
44441;BME280;30146;52.268;20.944;2023-01-28T06:36:18;101159.42;;;2.22;71.49
44441;BME280;30146;52.268;20.944;2023-01-28T06:38:49;101158.63;;;2.24;71.61
44441;BME280;30146;52.268;20.944;2023-01-28T06:41:20;101159.21;;;2.25;71.62
44441;BME280;30146;52.268;20.944;2023-01-28T06:43:51;101164.30;;;2.27;71.57
44441;BME280;30146;52.268;20.944;2023-01-28T06:46:23;101166.89;;;2.28;71.88
44441;BME280;30146;52.268;20.944;2023-01-28T06:48:54;101165.08;;;2.29;71.87
44441;BME280;30146;52.268;20.944;2023-01-28T06:51:25;101162.08;;;2.30;71.63
44441;BME280;30146;52.268;20.944;2023-01-28T06:53:55;101162.73;;;2.29;71.69
44441;BME280;30146;52.268;20.944;2023-01-28T06:56:26;101167.13;;;2.25;71.34
44441;BME280;30146;52.268;20.944;2023-01-28T06:58:57;101167.00;;;2.22;71.16
44441;BME280;30146;52.268;20.944;2023-01-28T07:01:31;101170.95;;;2.20;71.31
44441;BME280;30146;52.268;20.944;2023-01-28T07:04:03;101173.73;;;2.17;71.59
44441;BME280;30146;52.268;20.944;2023-01-28T07:06:33;101179.04;;;2.15;71.52
44441;BME280;30146;52.268;20.944;2023-01-28T07:09:05;101179.12;;;2.13;71.54
44441;BME280;30146;52.268;20.944;2023-01-28T07:11:36;101182.27;;;2.11;71.69
44441;BME280;30146;52.268;20.944;2023-01-28T07:14:07;101180.13;;;2.08;71.70
44441;BME280;30146;52.268;20.944;2023-01-28T07:16:38;101180.41;;;2.06;71.48
44441;BME280;30146;52.268;20.944;2023-01-28T07:19:09;101181.86;;;2.05;71.38
44441;BME280;30146;52.268;20.944;2023-01-28T07:21:40;101181.98;;;2.03;71.58
44441;BME280;30146;52.268;20.944;2023-01-28T07:24:11;101184.16;;;2.03;71.72
44441;BME280;30146;52.268;20.944;2023-01-28T07:26:42;101183.48;;;2.03;71.73
44441;BME280;30146;52.268;20.944;2023-01-28T07:29:13;101188.68;;;2.03;72.01
44441;BME280;30146;52.268;20.944;2023-01-28T07:31:44;101188.66;;;2.02;71.85
44441;BME280;30146;52.268;20.944;2023-01-28T07:34:15;101193.27;;;2.03;71.86
44441;BME280;30146;52.268;20.944;2023-01-28T07:36:46;101191.59;;;2.04;72.13
44441;BME280;30146;52.268;20.944;2023-01-28T07:39:17;101192.14;;;2.05;71.79
44441;BME280;30146;52.268;20.944;2023-01-28T07:41:48;101194.27;;;2.03;71.77
44441;BME280;30146;52.268;20.944;2023-01-28T07:44:38;101199.11;;;2.02;71.65
44441;BME280;30146;52.268;20.944;2023-01-28T07:47:10;101200.16;;;2.03;71.64
44441;BME280;30146;52.268;20.944;2023-01-28T07:49:42;101199.40;;;2.05;71.86
44441;BME280;30146;52.268;20.944;2023-01-28T07:52:13;101200.27;;;2.06;72.06
44441;BME280;30146;52.268;20.944;2023-01-28T07:54:44;101202.83;;;2.06;71.93
44441;BME280;30146;52.268;20.944;2023-01-28T07:57:14;101203.65;;;2.05;71.76
44441;BME280;30146;52.268;20.944;2023-01-28T07:59:52;101202.66;;;2.06;71.84
44441;BME280;30146;52.268;20.944;2023-01-28T08:02:23;101200.17;;;2.07;71.95
44441;BME280;30146;52.268;20.944;2023-01-28T08:04:54;101198.46;;;2.07;71.91
44441;BME280;30146;52.268;20.944;2023-01-28T08:07:28;101200.30;;;2.06;71.97
44441;BME280;30146;52.268;20.944;2023-01-28T08:09:59;101198.46;;;2.07;72.03
44441;BME280;30146;52.268;20.944;2023-01-28T08:12:30;101198.72;;;2.05;71.64
44441;BME280;30146;52.268;20.944;2023-01-28T08:15:01;101194.67;;;2.05;71.65
44441;BME280;30146;52.268;20.944;2023-01-28T08:17:34;101194.48;;;2.04;71.69
44441;BME280;30146;52.268;20.944;2023-01-28T08:20:06;101193.38;;;2.02;71.65
44441;BME280;30146;52.268;20.944;2023-01-28T08:22:38;101198.57;;;2.05;71.85
44441;BME280;30146;52.268;20.944;2023-01-28T08:25:10;101200.19;;;2.08;71.99
44441;BME280;30146;52.268;20.944;2023-01-28T08:27:41;101195.73;;;2.10;72.30
44441;BME280;30146;52.268;20.944;2023-01-28T08:30:13;101195.84;;;2.13;72.14
44441;BME280;30146;52.268;20.944;2023-01-28T08:32:45;101198.28;;;2.16;71.94
44441;BME280;30146;52.268;20.944;2023-01-28T08:35:16;101194.58;;;2.15;72.00
44441;BME280;30146;52.268;20.944;2023-01-28T08:37:47;101192.77;;;2.17;71.77
44441;BME280;30146;52.268;20.944;2023-01-28T08:40:19;101190.59;;;2.17;71.77
44441;BME280;30146;52.268;20.944;2023-01-28T08:42:52;101194.14;;;2.17;71.87
44441;BME280;30146;52.268;20.944;2023-01-28T08:45:24;101195.64;;;2.17;72.00
44441;BME280;30146;52.268;20.944;2023-01-28T08:47:58;101197.01;;;2.17;71.74
44441;BME280;30146;52.268;20.944;2023-01-28T08:50:31;101194.99;;;2.18;71.94
44441;BME280;30146;52.268;20.944;2023-01-28T08:53:05;101196.83;;;2.17;71.69
44441;BME280;30146;52.268;20.944;2023-01-28T08:55:36;101200.06;;;2.18;71.98
44441;BME280;30146;52.268;20.944;2023-01-28T08:58:09;101195.98;;;2.17;71.93
44441;BME280;30146;52.268;20.944;2023-01-28T09:00:41;101198.51;;;2.17;71.78
44441;BME280;30146;52.268;20.944;2023-01-28T09:03:13;101206.28;;;2.17;71.86
44441;BME280;30146;52.268;20.944;2023-01-28T09:05:44;101204.73;;;2.17;71.79
44441;BME280;30146;52.268;20.944;2023-01-28T09:08:15;101207.98;;;2.18;71.94
44441;BME280;30146;52.268;20.944;2023-01-28T09:10:46;101215.23;;;2.18;71.87
44441;BME280;30146;52.268;20.944;2023-01-28T09:13:17;101216.60;;;2.18;71.80
44441;BME280;30146;52.268;20.944;2023-01-28T09:15:48;101220.89;;;2.20;71.99
44441;BME280;30146;52.268;20.944;2023-01-28T09:18:20;101225.52;;;2.22;71.80
44441;BME280;30146;52.268;20.944;2023-01-28T09:20:51;101227.66;;;2.25;72.05
44441;BME280;30146;52.268;20.944;2023-01-28T09:23:22;101226.70;;;2.26;72.11
44441;BME280;30146;52.268;20.944;2023-01-28T09:26:01;101230.14;;;2.28;72.07
44441;BME280;30146;52.268;20.944;2023-01-28T09:28:33;101226.74;;;2.27;71.79
44441;BME280;30146;52.268;20.944;2023-01-28T09:31:08;101227.97;;;2.28;71.82
44441;BME280;30146;52.268;20.944;2023-01-28T09:33:41;101228.98;;;2.28;71.84
44441;BME280;30146;52.268;20.944;2023-01-28T09:36:12;101230.01;;;2.28;71.82
44441;BME280;30146;52.268;20.944;2023-01-28T09:38:42;101230.70;;;2.29;71.79
44441;BME280;30146;52.268;20.944;2023-01-28T09:41:25;101231.27;;;2.32;71.75
44441;BME280;30146;52.268;20.944;2023-01-28T09:44:05;101230.17;;;2.34;71.76
44441;BME280;30146;52.268;20.944;2023-01-28T09:46:40;101230.39;;;2.35;72.01
44441;BME280;30146;52.268;20.944;2023-01-28T09:49:20;101229.10;;;2.36;71.84
44441;BME280;30146;52.268;20.944;2023-01-28T09:51:56;101229.90;;;2.39;71.75
44441;BME280;30146;52.268;20.944;2023-01-28T09:54:32;101227.55;;;2.40;71.77
44441;BME280;30146;52.268;20.944;2023-01-28T09:57:11;101232.97;;;2.40;71.69
44441;BME280;30146;52.268;20.944;2023-01-28T09:59:42;101231.27;;;2.40;71.69
44441;BME280;30146;52.268;20.944;2023-01-28T10:02:30;101230.78;;;2.41;71.85
44441;BME280;30146;52.268;20.944;2023-01-28T10:05:16;101222.52;;;2.41;71.57
44441;BME280;30146;52.268;20.944;2023-01-28T10:07:55;101223.42;;;2.42;71.66
44441;BME280;30146;52.268;20.944;2023-01-28T10:10:31;101219.05;;;2.42;71.76
44441;BME280;30146;52.268;20.944;2023-01-28T10:13:18;101214.45;;;2.41;71.77
44441;BME280;30146;52.268;20.944;2023-01-28T10:16:07;101212.27;;;2.41;71.46
44441;BME280;30146;52.268;20.944;2023-01-28T10:18:45;101211.18;;;2.40;71.54
44441;BME280;30146;52.268;20.944;2023-01-28T10:21:22;101214.42;;;2.40;71.61
44441;BME280;30146;52.268;20.944;2023-01-28T10:24:00;101213.76;;;2.41;71.47
44441;BME280;30146;52.268;20.944;2023-01-28T10:26:34;101214.13;;;2.42;71.58
44441;BME280;30146;52.268;20.944;2023-01-28T10:29:12;101210.13;;;2.43;71.72
44441;BME280;30146;52.268;20.944;2023-01-28T10:31:52;101207.08;;;2.43;71.49
44441;BME280;30146;52.268;20.944;2023-01-28T10:34:23;101204.92;;;2.44;71.53
44441;BME280;30146;52.268;20.944;2023-01-28T10:36:55;101202.53;;;2.43;71.12
44441;BME280;30146;52.268;20.944;2023-01-28T10:39:28;101200.64;;;2.42;71.31
44441;BME280;30146;52.268;20.944;2023-01-28T10:42:00;101197.26;;;2.42;71.08
44441;BME280;30146;52.268;20.944;2023-01-28T10:44:34;101197.96;;;2.42;71.17
44441;BME280;30146;52.268;20.944;2023-01-28T10:47:11;101199.97;;;2.42;71.42
44441;BME280;30146;52.268;20.944;2023-01-28T10:49:47;101200.31;;;2.42;71.30
44441;BME280;30146;52.268;20.944;2023-01-28T10:52:19;101191.91;;;2.43;71.20
44441;BME280;30146;52.268;20.944;2023-01-28T10:54:59;101191.10;;;2.44;71.39
44441;BME280;30146;52.268;20.944;2023-01-28T10:57:33;101198.58;;;2.46;71.18
44441;BME280;30146;52.268;20.944;2023-01-28T11:00:24;101199.17;;;2.48;71.26
44441;BME280;30146;52.268;20.944;2023-01-28T11:02:59;101196.73;;;2.50;71.33
44441;BME280;30146;52.268;20.944;2023-01-28T11:05:31;101192.77;;;2.53;71.53
44441;BME280;30146;52.268;20.944;2023-01-28T11:08:15;101192.52;;;2.55;71.18
44441;BME280;30146;52.268;20.944;2023-01-28T11:10:47;101189.20;;;2.57;71.19
44441;BME280;30146;52.268;20.944;2023-01-28T11:13:21;101186.52;;;2.57;71.37
44441;BME280;30146;52.268;20.944;2023-01-28T11:15:54;101182.70;;;2.59;71.23
44441;BME280;30146;52.268;20.944;2023-01-28T11:18:29;101178.66;;;2.59;71.06
44441;BME280;30146;52.268;20.944;2023-01-28T11:21:02;101182.41;;;2.60;71.04
44441;BME280;30146;52.268;20.944;2023-01-28T11:23:39;101179.47;;;2.59;70.96
44441;BME280;30146;52.268;20.944;2023-01-28T11:26:18;101182.05;;;2.60;71.07
44441;BME280;30146;52.268;20.944;2023-01-28T11:28:51;101179.69;;;2.60;70.97
44441;BME280;30146;52.268;20.944;2023-01-28T11:31:23;101181.83;;;2.59;70.77
44441;BME280;30146;52.268;20.944;2023-01-28T11:33:57;101175.80;;;2.60;70.99
44441;BME280;30146;52.268;20.944;2023-01-28T11:36:30;101171.50;;;2.57;70.89
44441;BME280;30146;52.268;20.944;2023-01-28T11:39:13;101167.45;;;2.58;70.90
44441;BME280;30146;52.268;20.944;2023-01-28T11:41:47;101166.32;;;2.59;70.90
44441;BME280;30146;52.268;20.944;2023-01-28T11:44:20;101165.81;;;2.59;71.06
44441;BME280;30146;52.268;20.944;2023-01-28T11:47:06;101164.64;;;2.59;70.91
44441;BME280;30146;52.268;20.944;2023-01-28T11:49:51;101162.51;;;2.61;70.93
44441;BME280;30146;52.268;20.944;2023-01-28T11:52:26;101161.18;;;2.61;70.78
44441;BME280;30146;52.268;20.944;2023-01-28T11:55:46;101161.69;;;2.61;70.90
44441;BME280;30146;52.268;20.944;2023-01-28T11:58:24;101162.23;;;2.63;70.85
44441;BME280;30146;52.268;20.944;2023-01-28T12:01:06;101164.41;;;2.62;70.94
44441;BME280;30146;52.268;20.944;2023-01-28T12:03:58;101161.52;;;2.61;70.84
44441;BME280;30146;52.268;20.944;2023-01-28T12:06:56;101161.70;;;2.62;71.19
44441;BME280;30146;52.268;20.944;2023-01-28T12:09:37;101160.23;;;2.63;70.99
44441;BME280;30146;52.268;20.944;2023-01-28T12:12:37;101161.23;;;2.63;71.07
44441;BME280;30146;52.268;20.944;2023-01-28T12:15:47;101159.88;;;2.63;70.98
44441;BME280;30146;52.268;20.944;2023-01-28T12:18:34;101161.34;;;2.61;70.78
44441;BME280;30146;52.268;20.944;2023-01-28T12:21:19;101162.44;;;2.59;70.58
44441;BME280;30146;52.268;20.944;2023-01-28T12:24:05;101164.58;;;2.57;70.46
44441;BME280;30146;52.268;20.944;2023-01-28T12:26:48;101155.86;;;2.54;70.54
44441;BME280;30146;52.268;20.944;2023-01-28T12:29:32;101158.66;;;2.52;70.67
44441;BME280;30146;52.268;20.944;2023-01-28T12:32:15;101159.48;;;2.52;70.54
44441;BME280;30146;52.268;20.944;2023-01-28T12:37:52;101158.05;;;2.50;70.66
44441;BME280;30146;52.268;20.944;2023-01-28T12:40:48;101160.34;;;2.47;70.48
44441;BME280;30146;52.268;20.944;2023-01-28T12:43:26;101156.68;;;2.44;70.71
44441;BME280;30146;52.268;20.944;2023-01-28T12:46:08;101156.98;;;2.43;70.75
44441;BME280;30146;52.268;20.944;2023-01-28T12:48:44;101162.73;;;2.43;70.94
44441;BME280;30146;52.268;20.944;2023-01-28T12:51:19;101159.95;;;2.46;70.97
44441;BME280;30146;52.268;20.944;2023-01-28T12:53:54;101162.04;;;2.47;70.72
44441;BME280;30146;52.268;20.944;2023-01-28T12:56:30;101167.35;;;2.50;70.99
44441;BME280;30146;52.268;20.944;2023-01-28T12:59:09;101167.59;;;2.52;70.87
44441;BME280;30146;52.268;20.944;2023-01-28T13:01:43;101167.29;;;2.53;70.88
44441;BME280;30146;52.268;20.944;2023-01-28T13:04:24;101167.82;;;2.54;70.81
44441;BME280;30146;52.268;20.944;2023-01-28T13:07:01;101162.79;;;2.54;71.03
44441;BME280;30146;52.268;20.944;2023-01-28T13:09:37;101162.32;;;2.55;70.50
44441;BME280;30146;52.268;20.944;2023-01-28T13:12:13;101161.61;;;2.55;70.90
44441;BME280;30146;52.268;20.944;2023-01-28T13:14:46;101158.41;;;2.55;70.63
44441;BME280;30146;52.268;20.944;2023-01-28T13:17:27;101156.15;;;2.53;70.58
44441;BME280;30146;52.268;20.944;2023-01-28T13:19:59;101159.83;;;2.52;70.62
44441;BME280;30146;52.268;20.944;2023-01-28T13:22:33;101168.23;;;2.51;70.66
44441;BME280;30146;52.268;20.944;2023-01-28T13:25:20;101168.86;;;2.49;70.69
44441;BME280;30146;52.268;20.944;2023-01-28T13:27:59;101167.03;;;2.50;70.37
44441;BME280;30146;52.268;20.944;2023-01-28T13:30:33;101170.73;;;2.49;70.56
44441;BME280;30146;52.268;20.944;2023-01-28T13:35:54;101167.94;;;2.53;70.64
44441;BME280;30146;52.268;20.944;2023-01-28T13:38:25;101169.84;;;2.54;70.72
44441;BME280;30146;52.268;20.944;2023-01-28T13:40:59;101169.05;;;2.55;70.80
44441;BME280;30146;52.268;20.944;2023-01-28T13:43:40;101171.00;;;2.57;70.82
44441;BME280;30146;52.268;20.944;2023-01-28T13:46:14;101169.88;;;2.59;70.66
44441;BME280;30146;52.268;20.944;2023-01-28T13:48:57;101165.86;;;2.60;70.57